Latest Coastal Weather Observations for Lake Macquarie - Cooranbong

IDN60701

Issued at 3:51 am EST Tuesday 30 August 2016 (issued every 10 minutes, with the page automatically refreshed every 10 minutes)

About coastal observations | Map of coastal stations | Coastal observations for NSW | Marine services | Other Formats
Station Details ID: 061412 Name: LAKE MACQUARIE AWS Lat: -33.09 Lon: 151.46 Height: 6.0 m
Data from the previous 72 hours. | See also: Recent months at Lake Macquarie - Cooranbong
Date/Time
EST
Temp
°C
Wind Pressure Rain since
9am
mm
Weather Cloud Vis
km
Sea
Height
m
Swell
Dir  Spd
kts
Gust
kts
hPa Trend Height
m
Period
s
Dir
30/03:30am 8.0 CALM 0 0 1025.0 - 0.0 - - - - - - -
30/03:00am 8.3 CALM 0 0 1025.0 - 0.0 - - - - - - -
30/02:30am 8.1 CALM 0 1 1025.2 - 0.0 - - - - - - -
30/02:00am 8.5 CALM 0 0 1025.9 - 0.0 - - - - - - -
30/01:30am 8.6 CALM 0 0 1026.1 - 0.0 - - - - - - -
30/01:00am 8.7 CALM 0 1 1026.6 - 0.0 - - - - - - -
30/12:30am 8.9 CALM 0 0 1026.2 - 0.0 - - - - - - -
30/12:00am 9.1 CALM 0 0 1026.2 - 0.0 - - - - - - -
 
Date/Time
EST
Temp
°C
Wind Pressure Rain since
9am
mm
Weather Cloud Vis
km
Sea
Height
m
Swell
Dir  Spd
kts
Gust
kts
hPa Trend Height
m
Period
s
Dir
29/11:30pm 9.3 CALM 0 0 1026.2 - 0.0 - - - - - - -
29/11:00pm 9.4 CALM 0 0 1026.1 - 0.0 - - - - - - -
29/10:30pm 9.4 CALM 0 0 1026.9 - 0.0 - - - - - - -
29/10:00pm 9.7 CALM 0 0 1026.1 - 0.0 - - - - - - -
29/09:30pm 9.9 CALM 0 0 1025.8 - 0.0 - - - - - - -
29/09:00pm 9.9 CALM 0 0 1026.4 - 0.0 - - - - - - -
29/08:30pm 10.3 CALM 0 0 1026.7 - 0.0 - - - - - - -
29/08:00pm 10.5 CALM 0 0 1026.7 - 0.0 - - - - - - -
29/07:30pm 11.1 CALM 0 0 1026.4 - 0.0 - - - - - - -
29/07:00pm 11.6 CALM 0 0 1026.2 - 0.0 - - - - - - -
29/06:30pm 12.2 CALM 0 0 1026.0 - 0.0 - - - - - - -
29/06:00pm 13.2 CALM 0 0 1026.0 - 0.0 - - - - - - -
29/05:30pm 14.6 CALM 0 0 1025.7 - 0.0 - - - - - - -
29/05:00pm 16.1 CALM 0 1 1025.4 - 0.0 - - - - - - -
29/04:30pm 17.2 E 3 5 1025.2 - 0.0 - - - - - - -
29/04:00pm 17.6 E 3 5 1025.1 - 0.0 - - - - - - -
29/03:30pm 18.1 E 4 8 1025.1 - 0.0 - - - - - - -
29/03:00pm 18.8 E 7 10 1024.7 - 0.0 - - - - - - -
29/02:30pm 18.4 E 5 9 1025.0 - 0.0 - - - - - - -
29/02:00pm 19.3 E 4 6 1024.7 - 0.0 - - - - - - -
29/01:30pm 18.5 E 5 8 1025.0 - 0.0 - - - - - - -
29/01:00pm 19.4 ESE 5 8 1024.9 - 0.0 - - - - - - -
29/12:30pm 19.3 E 3 5 1025.5 - 0.0 - - - - - - -
29/12:00pm 18.4 E 4 7 1025.8 - 0.0 - - - - - - -
29/11:30am 19.1 E 3 7 1026.1 - 0.0 - - - - - - -
29/11:00am 18.6 E 3 6 1026.9 - 0.0 - - - - - - -
29/10:30am 18.4 E 2 4 1027.2 - 0.0 - - - - - - -
29/10:00am 17.7 CALM 0 4 1027.1 - 0.0 - - - - - - -
29/09:30am 16.0 CALM 0 2 1027.4 - 0.0 - - - - - - -
29/09:00am 13.1 CALM 0 1 1027.3 - 0.0 - - - - - - -
29/08:30am 10.3 CALM 0 0 1027.3 - 0.0 - - - - - - -
29/08:00am 7.6 CALM 0 0 1027.2 - 0.0 - - - - - - -
29/07:30am 5.8 CALM 0 0 1027.0 - 0.0 - - - - - - -
29/07:00am 2.9 CALM 0 0 1026.5 - 0.0 - - - - - - -
29/06:30am 2.4 CALM 0 0 1026.1 - 0.0 - - - - - - -
29/06:00am 2.5 CALM 0 0 1025.7 - 0.0 - - - - - - -
29/05:30am 2.7 CALM 0 0 1025.4 - 0.0 - - - - - - -
29/05:00am 3.1 CALM 0 0 1024.9 - 0.0 - - - - - - -
29/04:30am 3.3 CALM 0 0 1024.5 - 0.0 - - - - - - -
29/04:00am 3.3 CALM 0 0 1024.3 - 0.0 - - - - - - -
29/03:30am 3.2 CALM 0 0 1024.1 - 0.0 - - - - - - -
29/03:00am 3.8 CALM 0 0 1024.1 - 0.0 - - - - - - -
29/02:30am 3.8 CALM 0 0 1024.3 - 0.0 - - - - - - -
29/02:00am 4.3 CALM 0 0 1024.4 - 0.0 - - - - - - -
29/01:30am 4.6 CALM 0 0 1024.4 - 0.0 - - - - - - -
29/01:00am 4.9 CALM 0 0 1024.2 - 0.0 - - - - - - -
29/12:30am 5.2 CALM 0 0 1024.2 - 0.0 - - - - - - -
29/12:00am 5.5 CALM 0 0 1024.0 - 0.0 - - - - - - -
 
Date/Time
EST
Temp
°C
Wind Pressure Rain since
9am
mm
Weather Cloud Vis
km
Sea
Height
m
Swell
Dir  Spd
kts
Gust
kts
hPa Trend Height
m
Period
s
Dir
28/11:30pm 5.9 CALM 0 0 1024.0 - 0.0 - - - - - - -
28/11:00pm 6.2 CALM 0 0 1024.0 - 0.0 - - - - - - -
28/10:30pm 6.7 CALM 0 0 1024.1 - 0.0 - - - - - - -
28/10:00pm 6.9 CALM 0 0 1024.1 - 0.0 - - - - - - -
28/09:30pm 7.5 CALM 0 0 1024.1 - 0.0 - - - - - - -
28/09:00pm 7.8 CALM 0 0 1024.1 - 0.0 - - - - - - -
28/08:30pm 8.2 N 1 2 1023.9 - 0.0 - - - - - - -
28/08:00pm 8.9 CALM 0 0 1023.8 - 0.0 - - - - - - -
28/07:30pm 9.7 CALM 0 0 1023.5 - 0.0 - - - - - - -
28/07:00pm 10.2 CALM 0 0 1023.0 - 0.0 - - - - - - -
28/06:30pm 11.7 CALM 0 0 1022.6 - 0.0 - - - - - - -
28/06:00pm 13.2 CALM 0 0 1022.4 - 0.0 - - - - - - -
28/05:30pm 14.3 CALM 0 0 1021.9 - 0.0 - - - - - - -
28/05:00pm 16.7 ESE 3 5 1021.3 - 0.0 - - - - - - -
28/04:30pm 17.5 E 5 7 1020.8 - 0.0 - - - - - - -
28/04:00pm 18.3 E 5 8 1020.4 - 0.0 - - - - - - -
28/03:30pm 18.7 E 7 11 1020.4 - 0.0 - - - - - - -
28/03:00pm 20.5 SW 1 4 1020.3 - 0.0 - - - - - - -
28/02:30pm 20.4 N 3 5 1020.4 - 0.0 - - - - - - -
28/02:00pm 20.1 W 4 9 1020.6 - 0.0 - - - - - - -
28/01:30pm 19.6 SW 4 6 1020.9 - 0.0 - - - - - - -
28/01:00pm 19.6 N 1 3 1021.0 - 0.0 - - - - - - -
28/12:30pm 19.1 N 3 5 1021.6 - 0.0 - - - - - - -
28/12:00pm 18.8 NNE 2 5 1022.0 - 0.0 - - - - - - -
28/11:30am 18.2 WNW 4 6 1022.4 - 0.0 - - - - - - -
28/11:00am 17.1 NW 5 10 1022.9 - 0.0 - - - - - - -
28/10:30am 16.6 NW 3 5 1023.3 - 0.0 - - - - - - -
28/10:00am 15.4 WNW 5 7 1023.2 - 0.0 - - - - - - -
28/09:30am 13.8 NW 4 7 1023.5 - 0.0 - - - - - - -
28/09:00am 12.8 NW 4 9 1023.5 - 0.2 - - - - - - -
28/08:30am 9.8 SSW 2 3 1023.9 - 0.2 - - - - - - -
28/08:00am 6.9 NE 2 5 1023.9 - 0.2 - - - - - - -
28/07:30am 3.9 N 1 3 1023.5 - 0.2 - - - - - - -
28/07:00am 1.6 CALM 0 0 1023.4 - 0.2 - - - - - - -
28/06:30am 1.1 NNE 2 3 1022.8 - 0.2 - - - - - - -
28/06:00am 0.9 CALM 0 0 1022.7 - 0.2 - - - - - - -
28/05:30am 1.5 CALM 0 0 1022.3 - 0.2 - - - - - - -
28/05:00am 1.5 CALM 0 0 1022.0 - 0.2 - - - - - - -
28/04:30am 2.0 CALM 0 0 1021.8 - 0.2 - - - - - - -
28/04:00am 2.1 CALM 0 0 1021.8 - 0.2 - - - - - - -
28/03:30am 2.4 CALM 0 0 1021.6 - 0.2 - - - - - - -
28/03:00am 3.0 N 1 3 1021.8 - 0.2 - - - - - - -
28/02:30am 3.1 CALM 0 0 1021.9 - 0.2 - - - - - - -
28/02:00am 3.3 CALM 0 0 1022.1 - 0.2 - - - - - - -
28/01:30am 3.8 CALM 0 0 1022.2 - 0.2 - - - - - - -
28/01:00am 4.4 CALM 0 0 1022.4 - 0.2 - - - - - - -
28/12:30am 4.7 CALM 0 0 1022.2 - 0.2 - - - - - - -
28/12:00am 4.6 CALM 0 0 1022.3 - 0.2 - - - - - - -
 
Date/Time
EST
Temp
°C
Wind Pressure Rain since
9am
mm
Weather Cloud Vis
km
Sea
Height
m
Swell
Dir  Spd
kts
Gust
kts
hPa Trend Height
m
Period
s
Dir
27/11:30pm 5.5 CALM 0 0 1022.2 - 0.2 - - - - - - -
27/11:00pm 5.8 CALM 0 0 1022.1 - 0.2 - - - - - - -
27/10:30pm 6.3 CALM 0 0 1022.0 - 0.2 - - - - - - -
27/10:00pm 6.8 CALM 0 0 1022.1 - 0.2 - - - - - - -
27/09:30pm 7.2 CALM 0 0 1021.9 - 0.2 - - - - - - -
27/09:00pm 7.6 CALM 0 0 1022.1 - 0.2 - - - - - - -
27/08:30pm 7.8 N 1 2 1021.9 - 0.2 - - - - - - -
27/08:00pm 8.5 CALM 0 0 1021.8 - 0.2 - - - - - - -
27/07:30pm 9.0 CALM 0 0 1021.8 - 0.2 - - - - - - -
27/07:00pm 10.0 CALM 0 0 1021.7 - 0.2 - - - - - - -
27/06:30pm 11.1 CALM 0 0 1021.5 - 0.2 - - - - - - -
27/06:00pm 13.1 CALM 0 0 1021.2 - 0.2 - - - - - - -
27/05:30pm 14.7 ENE 2 3 1020.9 - 0.2 - - - - - - -
27/05:00pm 15.7 E 5 7 1020.9 - 0.2 - - - - - - -
27/04:30pm 16.9 E 3 6 1020.6 - 0.2 - - - - - - -
27/04:00pm 17.3 ESE 5 7 1020.6 - 0.2 - - - - - - -
27/03:30pm 17.5 E 4 6 1020.5 - 0.2 - - - - - - -
27/03:00pm 17.3 E 2 3 1020.6 - 0.2 - - - - - - -
27/02:30pm 17.7 S 2 5 1020.7 - 0.2 - - - - - - -
27/02:00pm 16.9 CALM 0 0 1021.1 - 0.2 - - - - - - -
27/01:30pm 17.3 NNW 2 4 1021.3 - 0.2 - - - - - - -
27/01:00pm 17.5 SSW 2 3 1021.9 - 0.2 - - - - - - -
27/12:30pm 17.4 SSW 2 3 1022.3 - 0.2 - - - - - - -
27/12:00pm 17.9 SE 2 6 1022.7 - 0.2 - - - - - - -
27/11:30am 17.5 E 3 6 1022.8 - 0.2 - - - - - - -
27/11:00am 16.2 SSW 2 6 1023.0 - 0.2 - - - - - - -
27/10:30am 16.4 S 2 6 1023.3 - 0.2 - - - - - - -
27/10:00am 15.2 WSW 4 6 1023.4 - 0.0 - - - - - - -
27/09:30am 14.1 SW 2 5 1023.5 - 0.0 - - - - - - -
27/09:00am 12.1 CALM 0 0 1023.4 - 2.8 - - - - - - -
27/08:30am 11.0 SW 2 5 1023.3 - 2.8 - - - - - - -
27/08:00am 10.5 SW 2 5 1023.1 - 2.8 - - - - - - -
27/07:30am 8.8 CALM 0 0 1022.8 - 2.8 - - - - - - -
27/07:00am 7.3 NW 1 3 1022.4 - 2.8 - - - - - - -
27/06:30am 6.9 CALM 0 0 1022.3 - 2.8 - - - - - - -
27/06:00am 7.3 CALM 0 0 1022.0 - 2.8 - - - - - - -
27/05:30am 7.0 CALM 0 0 1021.8 - 2.8 - - - - - - -
27/05:00am 7.7 CALM 0 0 1021.4 - 2.8 - - - - - - -
27/04:30am 7.8 CALM 0 0 1021.5 - 2.8 - - - - - - -
27/04:00am 7.8 CALM 0 0 1021.3 - 2.8 - - - - - - -

Other Formats:

Comma delimited format used in spreadsheet applications
http://www.bom.gov.au/fwo/IDN60701/IDN60701.95767.axf

JavaScript Object Notation format (JSON) in row-major order
http://www.bom.gov.au/fwo/IDN60701/IDN60701.95767.json